Time;durP1;ratioP1;P1;durP2;ratioP2;P2;SDS_P1;SDS_P2;PMS_P1;PMS_P2;Temp;Humidity;BMP_temperature;BMP_pressure;BME280_temperature;BME280_humidity;BME280_pressure;Samples;Min_cycle;Max_cycle;Signal;HPM_P1;HPM_P2
2023/09/06 00:01:27;;;;;;;21.52;18.13;;;17.80;99.90;;;;;;5156566;27;20133;-24
2023/09/06 00:03:55;;;;;;;21.15;18.83;;;17.80;99.90;;;;;;5138496;27;20102;-24
2023/09/06 00:06:22;;;;;;;21.65;19.35;;;17.70;99.90;;;;;;5155845;27;20126;-25
2023/09/06 00:08:48;;;;;;;22.58;20.05;;;17.80;99.90;;;;;;5155918;27;20507;-24
2023/09/06 00:11:13;;;;;;;25.70;20.13;;;17.80;99.90;;;;;;5155932;27;20039;-24
2023/09/06 00:13:40;;;;;;;27.30;21.65;;;17.80;99.90;;;;;;5155645;27;20516;-24
2023/09/06 00:16:07;;;;;;;22.85;20.42;;;17.80;99.90;;;;;;5156081;27;20053;-24
2023/09/06 00:18:32;;;;;;;25.38;20.48;;;17.80;99.90;;;;;;5154678;27;20044;-24
2023/09/06 00:20:58;;;;;;;24.25;19.48;;;17.80;99.90;;;;;;5155586;27;20115;-25
2023/09/06 00:23:25;;;;;;;26.33;20.67;;;17.80;99.90;;;;;;5155639;27;20051;-25
2023/09/06 00:25:52;;;;;;;23.00;20.58;;;17.80;99.90;;;;;;5155011;27;20084;-24
2023/09/06 00:28:23;;;;;;;24.90;19.88;;;17.80;99.90;;;;;;5155982;27;20050;-24
2023/09/06 00:30:50;;;;;;;21.45;19.15;;;17.80;99.90;;;;;;5155630;27;20046;-24
2023/09/06 00:33:16;;;;;;;22.23;19.80;;;17.70;99.90;;;;;;5155234;27;20377;-24
2023/09/06 00:35:43;;;;;;;23.42;21.02;;;17.70;99.90;;;;;;5155540;27;20050;-24
2023/09/06 00:38:08;;;;;;;23.52;19.35;;;17.60;99.90;;;;;;5154356;27;20099;-24
2023/09/06 00:40:36;;;;;;;26.70;19.60;;;17.60;99.90;;;;;;5155467;27;20050;-24
2023/09/06 00:43:03;;;;;;;22.17;19.70;;;17.60;99.90;;;;;;5155501;27;20058;-25
2023/09/06 00:45:37;;;;;;;21.58;19.20;;;17.60;99.90;;;;;;5136317;27;20489;-24
2023/09/06 00:48:05;;;;;;;24.40;18.60;;;17.50;99.90;;;;;;5155446;27;20038;-25
2023/09/06 00:50:33;;;;;;;22.25;19.60;;;17.40;99.90;;;;;;5155403;27;20400;-24
2023/09/06 00:52:59;;;;;;;21.88;19.55;;;17.40;99.90;;;;;;5155366;27;20046;-24
2023/09/06 00:55:26;;;;;;;23.17;20.67;;;17.30;99.90;;;;;;5155881;27;20085;-24
2023/09/06 00:57:52;;;;;;;23.98;19.65;;;17.30;99.90;;;;;;5155336;27;20043;-24
2023/09/06 01:00:19;;;;;;;24.23;19.02;;;17.20;99.90;;;;;;5155260;27;20051;-25
2023/09/06 01:02:48;;;;;;;24.52;21.33;;;17.10;99.90;;;;;;5155782;27;20095;-24
2023/09/06 01:05:19;;;;;;;26.85;20.67;;;17.10;99.90;;;;;;5155138;27;20121;-24
2023/09/06 01:07:49;;;;;;;21.98;19.70;;;17.10;99.90;;;;;;5155152;27;20039;-25
2023/09/06 01:10:15;;;;;;;23.70;20.05;;;17.00;99.90;;;;;;5155833;27;20047;-24
2023/09/06 01:12:41;;;;;;;25.85;20.45;;;17.00;99.90;;;;;;5155186;27;20039;-24
2023/09/06 01:15:07;;;;;;;24.60;20.38;;;17.00;99.90;;;;;;5154144;27;20054;-24
2023/09/06 01:17:36;;;;;;;24.92;21.58;;;17.00;99.90;;;;;;5155171;27;20111;-24
2023/09/06 01:20:15;;;;;;;26.83;22.05;;;16.90;99.90;;;;;;5155104;27;20049;-24
2023/09/06 01:22:47;;;;;;;32.45;24.73;;;17.00;99.90;;;;;;5155709;27;20039;-24
2023/09/06 01:25:14;;;;;;;27.80;24.17;;;16.90;99.90;;;;;;5155907;27;20035;-24
2023/09/06 01:27:40;;;;;;;29.48;25.02;;;17.00;99.90;;;;;;5123186;27;20121;-24
2023/09/06 01:30:07;;;;;;;27.25;24.13;;;16.90;99.90;;;;;;5140758;27;20133;-24
2023/09/06 01:32:32;;;;;;;30.08;24.73;;;16.90;99.90;;;;;;5159055;27;20082;-24
2023/09/06 01:34:58;;;;;;;28.85;25.40;;;16.90;99.90;;;;;;5157830;27;20088;-24
2023/09/06 01:37:24;;;;;;;29.67;25.75;;;16.90;99.90;;;;;;5158215;27;20046;-24
2023/09/06 01:39:49;;;;;;;28.42;25.05;;;16.90;99.90;;;;;;5159358;27;20369;-24
2023/09/06 01:42:17;;;;;;;29.52;26.27;;;16.80;99.90;;;;;;5157618;27;20058;-24
2023/09/06 01:44:43;;;;;;;28.23;24.80;;;16.80;99.90;;;;;;5157241;27;20507;-24
2023/09/06 01:47:09;;;;;;;31.30;25.65;;;16.70;99.90;;;;;;5158689;27;20051;-24
2023/09/06 01:49:34;;;;;;;32.58;28.13;;;16.70;99.90;;;;;;5158622;27;20477;-24
2023/09/06 01:52:01;;;;;;;30.92;26.80;;;16.70;99.90;;;;;;5141261;27;20047;-24
2023/09/06 01:54:27;;;;;;;33.25;29.67;;;16.70;99.90;;;;;;5158224;27;20388;-24
2023/09/06 01:56:52;;;;;;;31.98;27.60;;;16.60;99.90;;;;;;5158812;27;20042;-24
2023/09/06 01:59:18;;;;;;;29.80;26.25;;;16.60;99.90;;;;;;5140089;27;20046;-24
2023/09/06 02:01:44;;;;;;;32.58;25.23;;;16.50;99.90;;;;;;5158369;27;20477;-24
2023/09/06 02:04:09;;;;;;;30.20;26.98;;;16.50;99.90;;;;;;5157079;27;20074;-24
2023/09/06 02:06:35;;;;;;;27.65;24.27;;;16.50;99.90;;;;;;5158364;27;20047;-24
2023/09/06 02:09:01;;;;;;;29.88;26.30;;;16.50;99.90;;;;;;5157284;27;20444;-24
2023/09/06 02:11:26;;;;;;;31.65;26.77;;;16.50;99.90;;;;;;5158222;27;20043;-24
2023/09/06 02:13:52;;;;;;;32.05;27.70;;;16.50;99.90;;;;;;5158223;27;20388;-24
2023/09/06 02:16:19;;;;;;;35.85;26.45;;;16.40;99.90;;;;;;5158690;27;20046;-24
2023/09/06 02:18:45;;;;;;;38.53;29.52;;;16.40;99.90;;;;;;5158089;27;20102;-24
2023/09/06 02:21:10;;;;;;;29.08;25.30;;;16.40;99.90;;;;;;5158038;27;20039;-24
2023/09/06 02:23:36;;;;;;;32.08;27.45;;;16.30;99.90;;;;;;5158456;27;20092;-24
2023/09/06 02:26:03;;;;;;;35.13;26.83;;;16.30;99.90;;;;;;5157967;27;20042;-24
2023/09/06 02:28:28;;;;;;;32.70;25.85;;;16.30;99.90;;;;;;5156771;27;20046;-24
2023/09/06 02:30:54;;;;;;;35.08;26.05;;;16.30;99.90;;;;;;5158084;27;20426;-24
2023/09/06 02:33:20;;;;;;;33.35;27.77;;;16.20;99.90;;;;;;5157764;27;20365;-24
2023/09/06 02:35:46;;;;;;;32.72;27.70;;;16.20;99.90;;;;;;5157348;27;20130;-24
2023/09/06 02:38:13;;;;;;;33.88;25.90;;;16.20;99.90;;;;;;5156094;27;20047;-24
2023/09/06 02:40:41;;;;;;;25.38;22.05;;;16.10;99.90;;;;;;5157699;27;20039;-24
2023/09/06 02:43:07;;;;;;;33.80;27.42;;;16.00;99.90;;;;;;5157593;27;20052;-24
2023/09/06 02:45:39;;;;;;;28.73;24.20;;;15.90;99.90;;;;;;5157706;27;20050;-24
2023/09/06 02:48:16;;;;;;;32.03;25.80;;;15.80;99.90;;;;;;5158176;27;20046;-24
2023/09/06 02:50:44;;;;;;;33.90;27.90;;;15.80;99.90;;;;;;5140404;27;20383;-24
2023/09/06 02:53:19;;;;;;;32.78;25.60;;;15.80;99.90;;;;;;5158040;27;20051;-24
2023/09/06 02:55:51;;;;;;;35.75;25.98;;;15.80;99.90;;;;;;5158046;27;20082;-24
2023/09/06 02:58:23;;;;;;;26.05;22.90;;;15.70;99.90;;;;;;5157102;27;20043;-24
2023/09/06 03:00:52;;;;;;;28.20;23.40;;;15.60;99.90;;;;;;5157355;27;20045;-25
2023/09/06 03:03:19;;;;;;;26.95;23.15;;;15.40;99.90;;;;;;5157825;27;20061;-24
2023/09/06 03:05:46;;;;;;;28.55;23.88;;;15.40;99.90;;;;;;5157059;27;20043;-24
2023/09/06 03:08:13;;;;;;;27.92;23.80;;;15.50;99.90;;;;;;5156179;27;20102;-24
2023/09/06 03:10:40;;;;;;;36.15;26.75;;;15.60;99.90;;;;;;5157150;27;20433;-24
2023/09/06 03:13:09;;;;;;;36.28;27.27;;;15.60;99.90;;;;;;5155546;27;20551;-24
2023/09/06 03:15:35;;;;;;;34.38;25.95;;;15.70;99.90;;;;;;5157838;27;20091;-24
2023/09/06 03:18:01;;;;;;;32.92;24.73;;;15.70;99.90;;;;;;5156068;27;20515;-24
2023/09/06 03:20:42;;;;;;;29.42;24.02;;;15.70;99.90;;;;;;5156912;27;20055;-24
2023/09/06 03:23:20;;;;;;;31.77;26.83;;;15.80;99.90;;;;;;5156592;27;20480;-24
2023/09/06 03:25:54;;;;;;;32.80;24.58;;;15.80;99.90;;;;;;5156749;27;20119;-23
2023/09/06 03:28:21;;;;;;;29.08;24.70;;;15.80;99.90;;;;;;5156798;27;20082;-23
2023/09/06 03:30:48;;;;;;;27.95;22.95;;;15.80;99.90;;;;;;5155726;27;20051;-23
2023/09/06 03:33:14;;;;;;;28.80;22.80;;;15.80;99.90;;;;;;5156670;27;20143;-23
2023/09/06 03:35:41;;;;;;;27.73;22.20;;;15.70;99.90;;;;;;5138351;27;20046;-23
2023/09/06 03:38:10;;;;;;;29.08;24.02;;;15.70;99.90;;;;;;5155299;27;20480;-23
2023/09/06 03:40:36;;;;;;;32.35;24.90;;;15.70;99.90;;;;;;5156132;27;20476;-23
2023/09/06 03:43:14;;;;;;;28.00;21.55;;;15.80;99.90;;;;;;5155217;27;20050;-23
2023/09/06 03:45:44;;;;;;;31.95;24.70;;;15.70;99.90;;;;;;5155820;27;20097;-23
2023/09/06 03:48:10;;;;;;;32.97;23.25;;;15.60;99.90;;;;;;5155577;27;20084;-24
2023/09/06 03:50:36;;;;;;;35.25;25.15;;;15.60;99.90;;;;;;5155730;27;20506;-23
2023/09/06 03:53:04;;;;;;;29.15;22.73;;;15.60;99.90;;;;;;5155050;27;20046;-23
2023/09/06 03:55:31;;;;;;;26.80;21.67;;;15.60;99.90;;;;;;5156198;27;20057;-23
2023/09/06 03:57:56;;;;;;;30.42;23.75;;;15.60;99.90;;;;;;5156180;27;20061;-23
2023/09/06 04:00:26;;;;;;;28.38;22.30;;;15.60;99.90;;;;;;5156119;27;20469;-23
2023/09/06 04:02:56;;;;;;;31.35;22.08;;;15.60;99.90;;;;;;5155100;27;20038;-23
2023/09/06 04:05:25;;;;;;;27.55;21.70;;;15.60;99.90;;;;;;5155954;27;20039;-23
2023/09/06 04:07:55;;;;;;;29.55;22.40;;;15.60;99.90;;;;;;5156041;27;20146;-23
2023/09/06 04:10:23;;;;;;;27.38;21.98;;;15.60;99.90;;;;;;5156004;27;20046;-23
2023/09/06 04:12:53;;;;;;;28.48;22.80;;;15.70;99.90;;;;;;5155931;27;20099;-23
2023/09/06 04:15:21;;;;;;;28.92;22.33;;;15.60;99.90;;;;;;5155878;27;20078;-23
2023/09/06 04:17:54;;;;;;;25.80;20.85;;;15.60;99.90;;;;;;5138361;27;20133;-23
2023/09/06 04:20:19;;;;;;;27.23;21.67;;;15.50;99.90;;;;;;5156400;27;20047;-23
2023/09/06 04:22:47;;;;;;;29.08;21.25;;;15.60;99.90;;;;;;5155984;27;20129;-23
2023/09/06 04:25:16;;;;;;;25.85;19.55;;;15.60;99.90;;;;;;5155643;27;20069;-23
2023/09/06 04:27:44;;;;;;;24.05;21.17;;;15.50;99.90;;;;;;5155542;27;20134;-23
2023/09/06 04:30:11;;;;;;;27.05;19.60;;;15.50;99.90;;;;;;5155602;27;20049;-23
2023/09/06 04:32:37;;;;;;;25.85;20.27;;;15.50;99.90;;;;;;5137365;27;20047;-23
2023/09/06 04:35:04;;;;;;;27.98;21.92;;;15.50;99.90;;;;;;5156657;27;20041;-23
2023/09/06 04:37:29;;;;;;;22.63;19.40;;;15.50;99.90;;;;;;5155464;27;20125;-23
2023/09/06 04:39:55;;;;;;;29.00;20.40;;;15.40;99.90;;;;;;5155374;27;20082;-23
2023/09/06 04:42:21;;;;;;;29.25;21.48;;;15.50;99.90;;;;;;5155241;27;20050;-23
2023/09/06 04:44:47;;;;;;;24.80;20.50;;;15.50;99.90;;;;;;5154696;27;20050;-23
2023/09/06 04:47:15;;;;;;;26.63;20.77;;;15.50;99.90;;;;;;5155370;27;20047;-23
2023/09/06 04:49:45;;;;;;;27.85;20.38;;;15.40;99.90;;;;;;5155249;27;20042;-23
2023/09/06 04:52:11;;;;;;;22.98;18.75;;;15.50;99.90;;;;;;5154291;27;20053;-23
2023/09/06 04:54:36;;;;;;;25.65;20.73;;;15.50;99.90;;;;;;5136786;27;20126;-23
2023/09/06 04:57:02;;;;;;;24.38;18.48;;;15.50;99.90;;;;;;5155561;27;20043;-23
2023/09/06 04:59:28;;;;;;;22.50;18.27;;;15.50;99.90;;;;;;5155181;27;20502;-23
2023/09/06 05:01:54;;;;;;;23.10;18.10;;;15.40;99.90;;;;;;5141777;27;20048;-24
2023/09/06 05:04:19;;;;;;;24.70;18.10;;;15.50;99.90;;;;;;5159451;27;20039;-23
2023/09/06 05:06:45;;;;;;;23.17;18.33;;;15.40;99.90;;;;;;5158394;27;20129;-23
2023/09/06 05:09:15;;;;;;;26.27;17.98;;;15.40;99.90;;;;;;5159777;27;20042;-23
2023/09/06 05:11:41;;;;;;;20.38;16.92;;;15.40;99.90;;;;;;5159450;27;20129;-23
2023/09/06 05:14:06;;;;;;;22.58;17.35;;;15.50;99.90;;;;;;5158107;27;20478;-23
2023/09/06 05:16:32;;;;;;;22.77;18.52;;;15.40;99.90;;;;;;5158995;27;20082;-23
2023/09/06 05:18:58;;;;;;;24.50;18.83;;;15.40;99.90;;;;;;5159265;27;20175;-23
2023/09/06 05:21:23;;;;;;;23.38;17.20;;;15.40;99.90;;;;;;5157985;27;20039;-23
2023/09/06 05:23:49;;;;;;;24.27;18.02;;;15.40;99.90;;;;;;5158385;27;20038;-23
2023/09/06 05:26:15;;;;;;;21.33;16.42;;;15.40;99.90;;;;;;5159724;27;20511;-23
2023/09/06 05:28:42;;;;;;;22.08;16.27;;;15.40;99.90;;;;;;5158105;27;20043;-23
2023/09/06 05:31:09;;;;;;;19.35;16.08;;;15.40;99.90;;;;;;5158108;27;20042;-23
2023/09/06 05:33:34;;;;;;;22.50;16.77;;;15.50;99.90;;;;;;5158624;27;20421;-23
2023/09/06 05:36:00;;;;;;;20.15;16.75;;;15.50;99.90;;;;;;5159011;27;20134;-23
2023/09/06 05:38:26;;;;;;;18.83;15.70;;;15.40;99.90;;;;;;5123577;27;20065;-23
2023/09/06 05:40:53;;;;;;;19.73;16.33;;;15.50;99.90;;;;;;5158827;27;20046;-23
2023/09/06 05:43:18;;;;;;;18.67;14.82;;;15.50;99.90;;;;;;5157898;27;20050;-23
2023/09/06 05:45:44;;;;;;;18.73;15.45;;;15.60;99.90;;;;;;5158245;27;20101;-23
2023/09/06 05:48:10;;;;;;;19.77;15.90;;;15.60;99.90;;;;;;5159541;27;20086;-23
2023/09/06 05:50:35;;;;;;;17.63;14.18;;;15.60;99.90;;;;;;5159181;27;20494;-23
2023/09/06 05:53:01;;;;;;;19.23;16.27;;;15.80;99.90;;;;;;5158598;27;20054;-23
2023/09/06 05:55:28;;;;;;;19.40;14.13;;;15.70;99.90;;;;;;5159094;27;20039;-23
2023/09/06 05:57:53;;;;;;;16.38;14.68;;;15.80;99.90;;;;;;5157360;27;20047;-23
2023/09/06 06:00:21;;;;;;;17.30;14.35;;;15.90;99.90;;;;;;5158466;27;20050;-23
2023/09/06 06:02:48;;;;;;;14.75;13.15;;;15.90;99.90;;;;;;5157317;27;20050;-23
2023/09/06 06:05:14;;;;;;;17.05;13.45;;;16.00;99.90;;;;;;5158302;27;20042;-23
2023/09/06 06:07:41;;;;;;;15.68;13.20;;;16.10;99.90;;;;;;5157406;27;20047;-23
2023/09/06 06:10:10;;;;;;;13.90;11.52;;;16.10;99.90;;;;;;5156759;27;20046;-24
2023/09/06 06:12:38;;;;;;;14.82;12.27;;;16.20;99.90;;;;;;5157463;27;20039;-23
2023/09/06 06:15:05;;;;;;;17.90;11.60;;;16.20;99.90;;;;;;5157846;27;20043;-23
2023/09/06 06:17:31;;;;;;;15.32;11.43;;;16.30;99.90;;;;;;5158181;27;20055;-24
2023/09/06 06:19:56;;;;;;;13.75;11.45;;;16.30;99.90;;;;;;5158119;27;20041;-23
2023/09/06 06:22:22;;;;;;;12.48;11.18;;;16.40;99.90;;;;;;5158005;27;20042;-24
2023/09/06 06:24:48;;;;;;;13.90;10.60;;;16.50;99.90;;;;;;5157608;27;20125;-24
2023/09/06 06:27:13;;;;;;;13.65;9.25;;;16.50;99.90;;;;;;5139642;27;20046;-23
2023/09/06 06:29:39;;;;;;;14.10;11.30;;;16.60;99.90;;;;;;5158404;27;20045;-23
2023/09/06 06:32:05;;;;;;;18.25;10.18;;;16.70;99.90;;;;;;5157823;27;20046;-23
2023/09/06 06:34:31;;;;;;;10.80;9.40;;;16.70;99.90;;;;;;5157709;27;20056;-23
2023/09/06 06:36:56;;;;;;;11.77;9.32;;;16.80;99.90;;;;;;5158028;27;20118;-23
2023/09/06 06:39:22;;;;;;;11.10;8.68;;;16.90;99.90;;;;;;5156571;27;20122;-24
2023/09/06 06:41:48;;;;;;;15.77;9.57;;;17.10;99.90;;;;;;5157733;27;20388;-23
2023/09/06 06:44:13;;;;;;;10.68;8.68;;;17.20;99.90;;;;;;5157220;27;20111;-23
2023/09/06 06:46:39;;;;;;;10.65;7.85;;;17.30;99.90;;;;;;5157596;27;20042;-23
2023/09/06 06:49:07;;;;;;;9.52;8.60;;;17.40;99.90;;;;;;5139303;27;20129;-23
2023/09/06 06:51:38;;;;;;;10.40;7.47;;;17.60;99.90;;;;;;5157370;27;20055;-23
2023/09/06 06:54:09;;;;;;;10.57;6.47;;;17.60;99.90;;;;;;5156647;27;20070;-23
2023/09/06 06:56:36;;;;;;;8.57;7.18;;;17.80;99.90;;;;;;5158355;27;20345;-25
2023/09/06 06:59:07;;;;;;;9.05;7.05;;;17.90;99.90;;;;;;5157371;27;20479;-24
2023/09/06 07:01:33;;;;;;;9.70;5.90;;;18.00;99.90;;;;;;5157355;27;20050;-24
2023/09/06 07:03:59;;;;;;;7.13;5.32;;;18.10;99.90;;;;;;5155941;27;20133;-24
2023/09/06 07:06:26;;;;;;;6.15;5.43;;;18.20;99.90;;;;;;5155942;27;20055;-23
2023/09/06 07:08:54;;;;;;;7.97;5.80;;;18.30;99.90;;;;;;5156215;27;20130;-24
2023/09/06 07:11:20;;;;;;;7.35;5.13;;;18.40;99.90;;;;;;5139409;27;20050;-24
2023/09/06 07:13:49;;;;;;;9.05;5.47;;;18.40;99.90;;;;;;5157078;27;20055;-24
2023/09/06 07:16:17;;;;;;;9.10;5.28;;;18.50;99.90;;;;;;5138736;27;20046;-24
2023/09/06 07:18:43;;;;;;;8.80;5.10;;;18.70;99.90;;;;;;5156620;27;20043;-24
2023/09/06 07:21:09;;;;;;;6.55;4.63;;;18.70;99.90;;;;;;5156565;27;20491;-24
2023/09/06 07:23:35;;;;;;;6.03;5.30;;;18.90;99.90;;;;;;5155240;27;20082;-24
2023/09/06 07:26:01;;;;;;;6.50;4.93;;;19.00;99.90;;;;;;5157029;27;20097;-24
2023/09/06 07:28:41;;;;;;;7.15;4.60;;;19.10;99.90;;;;;;5157285;27;20053;-24
2023/09/06 07:31:07;;;;;;;6.38;4.60;;;19.20;99.90;;;;;;5156361;27;20373;-24
2023/09/06 07:33:34;;;;;;;7.10;4.47;;;19.40;99.90;;;;;;5155469;27;20471;-24
2023/09/06 07:36:00;;;;;;;7.32;4.13;;;19.50;99.90;;;;;;5157175;27;20043;-24
2023/09/06 07:38:26;;;;;;;7.10;4.03;;;19.60;99.90;;;;;;5156559;27;20106;-24
2023/09/06 07:41:03;;;;;;;5.90;4.28;;;19.70;99.90;;;;;;5157092;27;20054;-24
2023/09/06 07:43:29;;;;;;;6.88;4.10;;;19.80;99.90;;;;;;5157341;27;20046;-24
2023/09/06 07:45:59;;;;;;;4.40;3.55;;;20.00;99.90;;;;;;5154878;27;20465;-24
2023/09/06 07:48:26;;;;;;;5.65;4.05;;;20.10;99.90;;;;;;5156231;27;20062;-24
2023/09/06 07:50:52;;;;;;;7.75;4.40;;;20.20;99.90;;;;;;5156343;27;20042;-24
2023/09/06 07:53:18;;;;;;;5.78;3.70;;;20.40;99.90;;;;;;5156244;27;20429;-24
2023/09/06 07:55:45;;;;;;;4.80;3.63;;;20.50;99.90;;;;;;5155276;27;20053;-24
2023/09/06 07:58:12;;;;;;;5.72;3.00;;;20.60;99.90;;;;;;5155885;27;20377;-24
2023/09/06 08:00:37;;;;;;;6.25;3.10;;;20.80;99.90;;;;;;5156981;27;20047;-24
2023/09/06 08:03:03;;;;;;;3.85;3.30;;;20.90;99.90;;;;;;5156920;27;20457;-24
2023/09/06 08:05:31;;;;;;;4.40;3.30;;;21.00;99.90;;;;;;5155932;27;20035;-24
2023/09/06 08:07:58;;;;;;;3.47;3.13;;;21.20;99.90;;;;;;5156073;27;20046;-24
2023/09/06 08:10:27;;;;;;;5.05;2.83;;;21.30;99.90;;;;;;5137434;27;20046;-24
2023/09/06 08:12:52;;;;;;;6.05;2.80;;;21.50;99.90;;;;;;5121593;27;20078;-24
2023/09/06 08:15:18;;;;;;;5.85;2.95;;;21.60;99.90;;;;;;5155565;27;20086;-24
2023/09/06 08:17:47;;;;;;;8.07;2.67;;;21.70;99.90;;;;;;5154817;27;20050;-26
2023/09/06 08:20:15;;;;;;;4.72;2.40;;;21.80;99.90;;;;;;5155842;27;20047;-25
2023/09/06 08:22:42;;;;;;;4.63;2.40;;;21.90;99.90;;;;;;5156312;27;20418;-25
2023/09/06 08:25:08;;;;;;;3.90;2.38;;;22.00;1.00;;;;;;5154561;27;20086;-25
2023/09/06 08:27:33;;;;;;;4.28;2.22;;;22.10;38.90;;;;;;5155666;27;20050;-26
2023/09/06 08:29:59;;;;;;;5.05;2.47;;;22.20;54.50;;;;;;5155590;27;20054;-26
2023/09/06 08:32:25;;;;;;;4.30;2.50;;;22.40;46.20;;;;;;5155656;27;20046;-26
2023/09/06 08:34:50;;;;;;;4.30;2.47;;;22.50;1.00;;;;;;5155228;27;20062;-26
2023/09/06 08:37:16;;;;;;;5.25;3.00;;;22.60;1.00;;;;;;5137128;27;20131;-26
2023/09/06 08:39:42;;;;;;;3.97;2.03;;;22.70;1.00;;;;;;5155529;27;20052;-25
2023/09/06 08:42:08;;;;;;;4.28;2.13;;;22.80;99.90;;;;;;5155467;27;20050;-26
2023/09/06 08:44:35;;;;;;;5.47;2.03;;;22.90;99.90;;;;;;5153762;27;20058;-25
2023/09/06 08:47:06;;;;;;;5.75;2.47;;;23.00;99.90;;;;;;5155253;27;20043;-26
2023/09/06 08:49:33;;;;;;;5.80;2.67;;;23.10;1.00;;;;;;5155757;27;20114;-26
2023/09/06 08:52:01;;;;;;;5.03;2.17;;;23.30;17.20;;;;;;5154219;27;20053;-26
2023/09/06 08:54:28;;;;;;;3.67;1.88;;;23.40;1.00;;;;;;5155354;27;20042;-26
2023/09/06 08:56:54;;;;;;;7.35;1.65;;;23.50;1.00;;;;;;5155188;27;20050;-26
2023/09/06 08:59:21;;;;;;;3.60;2.00;;;23.70;1.00;;;;;;5155319;27;20047;-26
2023/09/06 09:01:46;;;;;;;3.33;1.70;;;23.80;1.00;;;;;;5155547;27;20054;-26
2023/09/06 09:04:12;;;;;;;2.35;1.52;;;24.00;1.00;;;;;;5155212;27;20464;-26
2023/09/06 09:06:43;;;;;;;3.63;1.65;;;24.50;99.90;;;;;;5155250;27;20111;-26
2023/09/06 09:09:16;;;;;;;4.68;1.58;;;25.10;54.00;;;;;;5154254;27;20043;-26
2023/09/06 09:11:50;;;;;;;2.97;1.60;;;26.30;1.00;;;;;;5154285;27;20046;-26
2023/09/06 09:14:21;;;;;;;3.95;1.45;;;27.30;9.10;;;;;;5155339;27;20053;-26
2023/09/06 09:16:57;;;;;;;2.47;1.55;;;27.90;78.30;;;;;;5155153;27;20038;-27
2023/09/06 09:19:23;;;;;;;5.60;1.65;;;28.30;99.90;;;;;;5155128;27;20563;-26
2023/09/06 09:21:50;;;;;;;3.03;1.42;;;28.50;99.90;;;;;;5155127;27;20083;-26
2023/09/06 09:24:34;;;;;;;3.90;1.70;;;29.20;99.90;;;;;;5154985;27;20489;-26
2023/09/06 09:27:00;;;;;;;4.10;1.60;;;29.40;1.00;;;;;;5155989;27;20047;-26
2023/09/06 09:29:28;;;;;;;3.20;1.58;;;29.70;99.90;;;;;;5154488;27;20399;-26
2023/09/06 09:32:03;;;;;;;4.78;1.42;;;29.70;1.00;;;;;;5154752;27;20560;-27
2023/09/06 09:34:29;;;;;;;1.98;1.50;;;29.50;1.00;;;;;;5154614;27;20380;-27
2023/09/06 09:36:55;;;;;;;5.10;2.00;;;29.70;1.00;;;;;;5154985;27;20039;-26
2023/09/06 09:39:26;;;;;;;3.90;1.90;;;30.10;1.00;;;;;;5155239;27;20042;-26
2023/09/06 09:41:57;;;;;;;4.68;1.40;;;30.50;1.00;;;;;;5136702;27;20480;-27
2023/09/06 09:44:22;;;;;;;2.95;1.95;;;30.80;1.00;;;;;;5154498;27;20042;-27
2023/09/06 09:46:52;;;;;;;3.58;1.58;;;31.00;1.00;;;;;;5155441;27;20499;-27
2023/09/06 09:49:20;;;;;;;3.20;1.65;;;31.20;1.00;;;;;;5157789;27;20051;-27
2023/09/06 09:51:50;;;;;;;3.45;1.40;;;31.40;1.00;;;;;;5157978;27;20046;-27
2023/09/06 09:54:17;;;;;;;2.22;1.30;;;31.50;1.00;;;;;;5158652;27;20042;-27
2023/09/06 09:56:57;;;;;;;3.08;1.58;;;31.40;99.90;;;;;;5157341;27;20051;-27
2023/09/06 09:59:23;;;;;;;3.13;1.60;;;31.60;99.90;;;;;;5158208;27;20400;-27
2023/09/06 10:01:51;;;;;;;3.33;1.58;;;31.40;99.90;;;;;;5159091;27;20053;-27
2023/09/06 10:04:20;;;;;;;4.00;1.58;;;31.60;99.90;;;;;;5158379;27;20076;-27
2023/09/06 10:06:47;;;;;;;3.55;1.65;;;31.80;99.90;;;;;;5158962;27;20051;-27
2023/09/06 10:09:16;;;;;;;2.20;1.42;;;31.80;99.90;;;;;;5157255;27;20055;-27
2023/09/06 10:11:42;;;;;;;5.60;1.70;;;32.00;99.90;;;;;;5158306;27;20494;-27
2023/09/06 10:14:10;;;;;;;4.65;1.73;;;32.40;1.00;;;;;;5159112;27;20042;-27
2023/09/06 10:16:35;;;;;;;3.25;1.60;;;32.80;1.00;;;;;;5157664;27;20103;-26
2023/09/06 10:19:01;;;;;;;3.90;1.50;;;32.90;1.00;;;;;;5158211;27;20054;-27
2023/09/06 10:21:29;;;;;;;5.03;1.40;;;32.70;99.90;;;;;;5158138;27;20038;-26
2023/09/06 10:23:56;;;;;;;4.80;1.50;;;32.60;99.90;;;;;;5158001;27;20045;-27
2023/09/06 10:26:27;;;;;;;4.25;1.30;;;32.40;99.90;;;;;;5158825;27;20046;-27
2023/09/06 10:28:57;;;;;;;1.58;1.10;;;32.50;99.90;;;;;;5156805;27;20055;-26
2023/09/06 10:31:47;;;;;;;2.53;1.33;;;32.70;99.90;;;;;;5158792;27;20042;-27
2023/09/06 10:34:13;;;;;;;3.50;1.17;;;32.70;99.90;;;;;;5157990;27;20086;-26
2023/09/06 10:37:09;;;;;;;3.05;1.55;;;32.70;99.90;;;;;;5157866;27;20091;-27
2023/09/06 10:39:46;;;;;;;2.40;1.40;;;32.90;99.90;;;;;;5139857;27;20051;-27
2023/09/06 10:42:13;;;;;;;10.00;2.90;;;33.00;99.90;;;;;;5156606;27;20047;-27
2023/09/06 10:45:11;;;;;;;4.28;1.25;;;32.90;99.90;;;;;;5157338;27;20056;-27
2023/09/06 10:47:38;;;;;;;5.72;1.45;;;33.10;99.90;;;;;;5111738;27;20076;-27
2023/09/06 10:50:09;;;;;;;4.05;1.23;;;33.40;99.90;;;;;;5157882;27;20044;-26
2023/09/06 10:52:49;;;;;;;3.40;1.60;;;33.80;99.90;;;;;;5157566;27;20042;-27
2023/09/06 10:55:23;;;;;;;3.42;1.38;;;33.90;99.90;;;;;;5157213;27;20484;-27
2023/09/06 10:58:02;;;;;;;3.28;1.60;;;34.00;99.90;;;;;;5156543;27;20145;-27
2023/09/06 11:00:34;;;;;;;4.38;1.48;;;33.80;99.90;;;;;;5156728;27;20125;-28
2023/09/06 11:03:13;;;;;;;3.75;1.25;;;33.70;99.90;;;;;;5156690;27;20051;-26
2023/09/06 11:05:46;;;;;;;1.80;1.33;;;33.30;99.90;;;;;;5157200;27;20050;-27
2023/09/06 11:08:22;;;;;;;1.58;0.90;;;32.70;99.90;;;;;;5156886;27;20492;-27
2023/09/06 11:10:48;;;;;;;3.25;1.27;;;32.90;99.90;;;;;;5156013;27;20043;-27
2023/09/06 11:13:18;;;;;;;4.10;1.33;;;32.80;99.90;;;;;;5157097;27;20115;-27
2023/09/06 11:15:44;;;;;;;3.17;1.20;;;32.90;99.90;;;;;;5156548;27;20042;-26
2023/09/06 11:18:10;;;;;;;3.25;1.00;;;33.00;99.90;;;;;;5156943;27;20035;-27
2023/09/06 11:20:37;;;;;;;3.63;1.00;;;32.80;99.90;;;;;;5157011;27;20129;-27
2023/09/06 11:23:03;;;;;;;1.63;1.10;;;32.90;99.90;;;;;;5138917;27;20058;-27
2023/09/06 11:25:34;;;;;;;1.95;1.08;;;32.90;99.90;;;;;;5156858;27;20035;-28
2023/09/06 11:28:02;;;;;;;2.35;1.30;;;32.90;99.90;;;;;;5156849;27;20503;-27
2023/09/06 11:30:32;;;;;;;1.98;1.35;;;33.10;99.90;;;;;;5156467;27;20511;-26
2023/09/06 11:32:58;;;;;;;1.40;1.05;;;33.50;99.90;;;;;;5155578;27;20090;-27
2023/09/06 11:35:33;;;;;;;1.40;1.10;;;33.50;99.90;;;;;;5155408;27;20114;-27
2023/09/06 11:38:00;;;;;;;1.95;1.17;;;33.60;99.90;;;;;;5157146;27;20046;-28
2023/09/06 11:40:27;;;;;;;2.92;1.35;;;33.80;1.00;;;;;;5155973;27;20138;-27
2023/09/06 11:42:57;;;;;;;2.55;1.33;;;33.90;1.00;;;;;;5156560;27;20046;-27
2023/09/06 11:45:25;;;;;;;2.58;1.10;;;34.10;1.00;;;;;;5154890;27;20051;-27
2023/09/06 11:47:57;;;;;;;5.25;1.40;;;34.10;1.00;;;;;;5156487;27;20042;-27
2023/09/06 11:50:23;;;;;;;3.05;1.30;;;34.20;1.00;;;;;;5156393;27;20047;-27
2023/09/06 11:52:53;;;;;;;5.70;1.23;;;34.10;1.00;;;;;;5156357;27;20050;-27
2023/09/06 11:55:20;;;;;;;3.15;1.50;;;33.90;1.00;;;;;;5156290;27;20432;-27
2023/09/06 11:57:52;;;;;;;4.20;1.27;;;34.10;1.00;;;;;;5156501;27;20149;-28
2023/09/06 12:00:47;;;;;;;1.98;1.23;;;34.30;1.00;;;;;;5156828;27;20039;-27
2023/09/06 12:03:16;;;;;;;3.42;1.00;;;34.60;1.00;;;;;;5155873;27;20450;-28
2023/09/06 12:05:46;;;;;;;3.45;1.20;;;34.40;1.00;;;;;;5155697;27;20043;-27
2023/09/06 12:08:19;;;;;;;1.23;0.80;;;34.60;1.00;;;;;;5156075;27;20366;-27
2023/09/06 12:10:54;;;;;;;2.17;1.42;;;34.50;1.00;;;;;;5155052;27;20095;-27
2023/09/06 12:13:34;;;;;;;1.52;1.13;;;34.70;1.00;;;;;;5156541;27;20038;-27
2023/09/06 12:16:02;;;;;;;2.22;1.30;;;34.60;1.00;;;;;;5154935;27;20066;-27
2023/09/06 12:18:29;;;;;;;2.08;1.13;;;34.70;1.00;;;;;;5155861;27;20091;-27
2023/09/06 12:20:58;;;;;;;5.00;1.30;;;34.70;1.00;;;;;;5155836;27;20047;-27
2023/09/06 12:23:28;;;;;;;2.70;1.25;;;34.90;1.00;;;;;;5155786;27;20038;-27
2023/09/06 12:25:55;;;;;;;3.63;1.20;;;34.90;1.00;;;;;;5155285;27;20117;-27
2023/09/06 12:28:20;;;;;;;4.50;1.63;;;34.70;1.00;;;;;;5155689;27;20122;-27
2023/09/06 12:30:46;;;;;;;1.20;1.10;;;35.10;1.00;;;;;;5155663;27;20527;-27
2023/09/06 12:33:15;;;;;;;1.45;0.93;;;35.20;1.00;;;;;;5155312;27;20090;-27
2023/09/06 12:35:40;;;;;;;3.10;1.10;;;35.20;1.00;;;;;;5120364;27;20070;-29
2023/09/06 12:38:07;;;;;;;2.42;1.02;;;35.10;1.00;;;;;;5156100;27;20480;-27
2023/09/06 12:40:33;;;;;;;1.92;1.10;;;35.40;1.00;;;;;;5154553;27;20050;-28
2023/09/06 12:42:59;;;;;;;2.42;1.38;;;35.30;1.00;;;;;;5155297;27;20560;-27